createdAt,value
2023-04-08T00:02:21.020Z,6.22
2023-04-08T00:04:47.435Z,6.57
2023-04-08T00:07:13.775Z,5.85
2023-04-08T00:09:40.078Z,6.28
2023-04-08T00:12:06.661Z,5.82
2023-04-08T00:14:33.036Z,5.82
2023-04-08T00:16:59.343Z,6.38
2023-04-08T00:19:25.736Z,6.28
2023-04-08T00:21:52.077Z,5.75
2023-04-08T00:24:19.395Z,5.45
2023-04-08T00:26:45.699Z,5.68
2023-04-08T00:29:12.014Z,6.20
2023-04-08T00:31:38.325Z,6.05
2023-04-08T00:34:04.647Z,6.07
2023-04-08T00:36:30.946Z,6.20
2023-04-08T00:38:57.256Z,6.28
2023-04-08T00:41:23.623Z,5.75
2023-04-08T00:43:49.938Z,6.28
2023-04-08T00:46:16.400Z,5.60
2023-04-08T00:48:42.769Z,5.50
2023-04-08T00:51:09.127Z,6.65
2023-04-08T00:53:35.436Z,6.35
2023-04-08T00:56:01.738Z,6.50
2023-04-08T00:58:29.321Z,6.10
2023-04-08T01:01:05.623Z,5.78
2023-04-08T01:03:47.075Z,6.22
2023-04-08T01:06:19.974Z,5.40
2023-04-08T01:08:48.064Z,5.80
2023-04-08T01:11:15.031Z,6.43
2023-04-08T01:13:44.513Z,5.97
2023-04-08T01:16:14.063Z,6.32
2023-04-08T01:18:42.116Z,5.88
2023-04-08T01:21:09.684Z,6.00
2023-04-08T01:24:10.835Z,6.47
2023-04-08T01:26:38.351Z,5.90
2023-04-08T01:29:07.406Z,5.78
2023-04-08T01:31:36.654Z,5.97
2023-04-08T01:34:04.940Z,5.88
2023-04-08T01:36:32.610Z,6.50
2023-04-08T01:39:01.925Z,6.13
2023-04-08T01:41:29.747Z,6.30
2023-04-08T01:43:57.551Z,6.60
2023-04-08T01:46:24.298Z,7.10
2023-04-08T01:48:52.110Z,6.97
2023-04-08T01:51:19.664Z,6.60
2023-04-08T01:53:46.029Z,7.35
2023-04-08T01:56:15.555Z,7.85
2023-04-08T01:58:46.310Z,7.75
2023-04-08T02:01:16.977Z,7.15
2023-04-08T02:03:45.039Z,7.72
2023-04-08T02:06:11.479Z,7.78
2023-04-08T02:08:37.775Z,7.40
2023-04-08T02:11:04.161Z,8.02
2023-04-08T02:13:32.145Z,7.57
2023-04-08T02:16:16.098Z,7.97
2023-04-08T02:18:47.992Z,8.27
2023-04-08T02:21:15.769Z,8.50
2023-04-08T02:23:48.556Z,9.35
2023-04-08T02:26:16.432Z,9.82
2023-04-08T02:28:43.209Z,8.38
2023-04-08T02:31:11.752Z,8.90
2023-04-08T02:33:39.198Z,7.90
2023-04-08T02:36:06.751Z,8.60
2023-04-08T02:38:33.088Z,8.52
2023-04-08T02:40:59.420Z,8.02
2023-04-08T02:43:26.077Z,8.95
2023-04-08T02:45:52.621Z,8.88
2023-04-08T02:48:18.939Z,8.98
2023-04-08T02:50:45.244Z,10.02
2023-04-08T02:53:11.561Z,9.18
2023-04-08T02:55:37.991Z,9.60
2023-04-08T02:58:04.320Z,10.18
2023-04-08T03:00:30.670Z,9.23
2023-04-08T03:02:57.230Z,10.48
2023-04-08T03:05:23.985Z,10.43
2023-04-08T03:07:50.278Z,10.07
2023-04-08T03:10:16.647Z,10.25
2023-04-08T03:12:43.085Z,10.23
2023-04-08T03:15:09.724Z,11.05
2023-04-08T03:17:36.097Z,11.38
2023-04-08T03:20:02.905Z,11.13
2023-04-08T03:22:29.230Z,12.10
2023-04-08T03:24:55.524Z,10.32
2023-04-08T03:27:21.837Z,12.07
2023-04-08T03:29:48.141Z,11.20
2023-04-08T03:32:14.566Z,12.10
2023-04-08T03:34:41.112Z,12.90
2023-04-08T03:37:07.598Z,12.52
2023-04-08T03:39:33.932Z,13.10
2023-04-08T03:42:00.290Z,13.38
2023-04-08T03:44:27.186Z,13.55
2023-04-08T03:46:53.486Z,14.00
2023-04-08T03:49:19.818Z,13.25
2023-04-08T03:51:46.156Z,13.30
2023-04-08T03:54:12.468Z,12.57
2023-04-08T03:56:38.790Z,12.20
2023-04-08T03:59:05.094Z,11.05
2023-04-08T04:01:31.451Z,10.45
2023-04-08T04:03:58.619Z,10.88
2023-04-08T04:06:25.122Z,10.90
2023-04-08T04:08:54.042Z,10.20
2023-04-08T04:11:20.366Z,9.30
2023-04-08T04:13:46.665Z,10.15
2023-04-08T04:16:13.033Z,9.60
2023-04-08T04:18:39.400Z,8.98
2023-04-08T04:21:06.604Z,9.20
2023-04-08T04:23:33.048Z,9.23
2023-04-08T04:25:59.437Z,8.75
2023-04-08T04:28:25.732Z,8.57
2023-04-08T04:30:52.385Z,8.80
2023-04-08T04:33:19.607Z,8.82
2023-04-08T04:35:45.935Z,8.38
2023-04-08T04:38:12.262Z,8.50
2023-04-08T04:40:39.389Z,8.77
2023-04-08T04:43:05.728Z,8.13
2023-04-08T04:45:32.128Z,8.65
2023-04-08T04:47:58.556Z,8.25
2023-04-08T04:50:24.947Z,7.90
2023-04-08T04:52:51.292Z,7.45
2023-04-08T04:55:17.621Z,8.80
2023-04-08T04:57:43.950Z,8.27
2023-04-08T05:00:10.794Z,9.23
2023-04-08T05:02:37.307Z,9.85
2023-04-08T05:05:03.961Z,9.15
2023-04-08T05:07:30.318Z,10.18
2023-04-08T05:09:56.612Z,9.40
2023-04-08T05:12:22.968Z,10.35
2023-04-08T05:14:49.275Z,9.95
2023-04-08T05:17:15.569Z,9.15
2023-04-08T05:19:41.884Z,9.55
2023-04-08T05:22:08.194Z,8.80
2023-04-08T05:24:34.524Z,9.73
2023-04-08T05:27:00.819Z,9.40
2023-04-08T05:29:27.341Z,9.93
2023-04-08T05:31:53.788Z,9.50
2023-04-08T05:34:20.143Z,9.60
2023-04-08T05:36:46.444Z,9.27
2023-04-08T05:39:12.730Z,9.63
2023-04-08T05:41:39.046Z,10.38
2023-04-08T05:44:05.423Z,9.93
2023-04-08T05:46:31.737Z,9.07
2023-04-08T05:48:58.069Z,10.65
2023-04-08T05:51:24.398Z,10.73
2023-04-08T05:53:50.686Z,10.52
2023-04-08T05:56:16.990Z,11.68
2023-04-08T05:58:43.303Z,10.65
2023-04-08T06:01:09.647Z,10.68
2023-04-08T06:03:36.151Z,10.57
2023-04-08T06:06:02.569Z,10.77
2023-04-08T06:08:28.881Z,10.80
2023-04-08T06:10:55.227Z,11.57
2023-04-08T06:13:21.544Z,12.07
2023-04-08T06:15:48.198Z,11.20
2023-04-08T06:18:16.448Z,10.85
2023-04-08T06:20:42.772Z,11.05
2023-04-08T06:23:09.094Z,11.55
2023-04-08T06:25:35.425Z,12.25
2023-04-08T06:28:01.774Z,10.93
2023-04-08T06:30:28.115Z,12.02
2023-04-08T06:32:54.498Z,12.00
2023-04-08T06:35:20.866Z,11.27
2023-04-08T06:37:47.217Z,11.82
2023-04-08T06:40:13.553Z,12.43
2023-04-08T06:42:39.855Z,11.90
2023-04-08T06:45:06.485Z,12.25
2023-04-08T06:47:32.839Z,12.75
2023-04-08T06:49:59.200Z,12.35
2023-04-08T06:52:25.531Z,12.35
2023-04-08T06:54:51.820Z,12.13
2023-04-08T06:57:18.294Z,11.27
2023-04-08T06:59:44.617Z,11.85
2023-04-08T07:02:10.960Z,11.60
2023-04-08T07:04:37.326Z,12.95
2023-04-08T07:07:03.627Z,12.32
2023-04-08T07:09:29.973Z,12.70
2023-04-08T07:11:56.274Z,12.68
2023-04-08T07:14:22.596Z,12.25
2023-04-08T07:16:48.980Z,14.32
2023-04-08T07:19:15.295Z,12.00
2023-04-08T07:21:41.612Z,12.25
2023-04-08T07:24:07.932Z,12.90
2023-04-08T07:26:34.224Z,12.75
2023-04-08T07:29:00.537Z,13.40
2023-04-08T07:31:26.883Z,13.45
2023-04-08T07:33:53.247Z,13.23
2023-04-08T07:36:19.593Z,13.68
2023-04-08T07:38:45.973Z,13.52
2023-04-08T07:41:12.368Z,13.40
2023-04-08T07:43:38.689Z,13.45
2023-04-08T07:46:06.173Z,13.38
2023-04-08T07:48:33.754Z,13.23
2023-04-08T07:51:18.007Z,15.15
2023-04-08T07:53:47.203Z,14.85
2023-04-08T07:56:15.428Z,15.23
2023-04-08T07:58:42.341Z,15.48
2023-04-08T08:01:22.979Z,15.95
2023-04-08T08:03:51.121Z,17.15
2023-04-08T08:06:17.919Z,15.45
2023-04-08T08:08:44.338Z,15.13
2023-04-08T08:11:10.656Z,16.85
2023-04-08T08:13:37.015Z,16.00
2023-04-08T08:16:03.439Z,16.65
2023-04-08T08:18:29.782Z,16.45
2023-04-08T08:20:56.158Z,17.35
2023-04-08T08:23:22.505Z,17.83
2023-04-08T08:25:48.845Z,18.77
2023-04-08T08:28:15.177Z,17.27
2023-04-08T08:30:41.523Z,18.20
2023-04-08T08:33:08.049Z,18.52
2023-04-08T08:35:34.474Z,19.27
2023-04-08T08:38:00.858Z,18.27
2023-04-08T08:40:27.227Z,19.00
2023-04-08T08:42:53.612Z,18.23
2023-04-08T08:45:20.536Z,18.83
2023-04-08T08:47:48.986Z,19.23
2023-04-08T08:50:16.835Z,20.15
2023-04-08T08:52:52.523Z,19.05
2023-04-08T08:55:36.370Z,19.52
2023-04-08T08:58:06.672Z,18.48
2023-04-08T09:00:37.549Z,19.08
2023-04-08T09:03:15.903Z,19.95
2023-04-08T09:05:50.200Z,20.67
2023-04-08T09:08:28.402Z,21.67
2023-04-08T09:10:55.907Z,21.02
2023-04-08T09:13:23.525Z,20.65
2023-04-08T09:16:01.995Z,19.05
2023-04-08T09:18:28.395Z,17.80
2023-04-08T09:20:54.801Z,19.55
2023-04-08T09:23:21.160Z,18.90
2023-04-08T09:25:48.104Z,22.83
2023-04-08T09:28:20.929Z,17.92
2023-04-08T09:30:47.526Z,18.10
2023-04-08T09:33:13.888Z,18.50
2023-04-08T09:35:40.233Z,18.90
2023-04-08T09:38:06.582Z,17.63
2023-04-08T09:40:34.752Z,17.75
2023-04-08T09:43:05.029Z,16.48
2023-04-08T09:45:34.048Z,17.55
2023-04-08T09:48:15.782Z,17.85
2023-04-08T09:50:50.726Z,18.63
2023-04-08T09:53:26.440Z,18.60
2023-04-08T09:55:56.856Z,18.33
2023-04-08T09:58:29.158Z,16.85
2023-04-08T10:00:55.772Z,17.45
2023-04-08T10:03:45.568Z,16.17
2023-04-08T10:06:12.407Z,16.92
2023-04-08T10:08:39.112Z,16.80
2023-04-08T10:11:05.503Z,17.67
2023-04-08T10:13:33.771Z,17.63
2023-04-08T10:16:22.146Z,17.35
2023-04-08T10:18:48.799Z,18.90
2023-04-08T10:21:33.839Z,18.77
2023-04-08T10:24:01.759Z,19.35
2023-04-08T10:26:54.421Z,21.25
2023-04-08T10:29:26.456Z,19.15
2023-04-08T10:31:52.914Z,19.45
2023-04-08T10:34:21.125Z,19.45
2023-04-08T10:36:48.284Z,20.42
2023-04-08T10:39:15.141Z,20.92
2023-04-08T10:41:42.547Z,19.65
2023-04-08T10:44:27.126Z,21.02
2023-04-08T10:46:54.566Z,21.13
2023-04-08T10:49:21.060Z,22.35
2023-04-08T10:51:47.505Z,22.27
2023-04-08T10:54:18.166Z,20.13
2023-04-08T10:56:49.357Z,20.35
2023-04-08T10:59:17.771Z,18.90
2023-04-08T11:01:46.804Z,18.75
2023-04-08T11:04:18.057Z,19.92
2023-04-08T11:06:45.711Z,18.35
2023-04-08T11:09:12.332Z,17.48
2023-04-08T11:11:39.164Z,18.90
2023-04-08T11:14:06.461Z,17.98
2023-04-08T11:16:33.946Z,19.30
2023-04-08T11:19:02.492Z,19.20
2023-04-08T11:21:28.916Z,19.27
2023-04-08T11:23:55.684Z,20.75
2023-04-08T11:26:22.589Z,19.27
2023-04-08T11:28:49.143Z,19.83
2023-04-08T11:31:15.682Z,20.85
2023-04-08T11:33:49.391Z,19.17
2023-04-08T11:36:18.002Z,20.80
2023-04-08T11:38:44.464Z,18.58
2023-04-08T11:41:11.069Z,17.88
2023-04-08T11:43:37.911Z,18.10
2023-04-08T11:46:11.040Z,19.40
2023-04-08T11:48:37.519Z,18.48
2023-04-08T11:51:08.161Z,17.42
2023-04-08T11:53:35.313Z,18.70
2023-04-08T11:56:19.270Z,18.83
2023-04-08T11:58:45.683Z,19.13
2023-04-08T12:01:12.342Z,22.35
2023-04-08T12:03:38.952Z,20.52
2023-04-08T12:06:05.509Z,20.88
2023-04-08T12:08:31.819Z,20.70
2023-04-08T12:11:03.736Z,19.60
2023-04-08T12:13:39.431Z,19.80
2023-04-08T12:16:06.022Z,18.67
2023-04-08T12:18:32.309Z,17.65
2023-04-08T12:20:58.632Z,19.70
2023-04-08T12:23:25.013Z,18.13
2023-04-08T12:25:51.331Z,19.83
2023-04-08T12:28:17.634Z,19.70
2023-04-08T12:30:43.934Z,19.20
2023-04-08T12:33:10.332Z,20.20
2023-04-08T12:35:37.787Z,19.40
2023-04-08T12:38:04.102Z,20.40
2023-04-08T12:40:30.422Z,19.50
2023-04-08T12:42:56.726Z,20.45
2023-04-08T12:45:23.129Z,21.00
2023-04-08T12:47:49.494Z,19.33
2023-04-08T12:50:15.894Z,19.83
2023-04-08T12:52:42.198Z,19.30
2023-04-08T12:55:08.983Z,18.02
2023-04-08T12:57:35.641Z,18.77
2023-04-08T13:00:02.053Z,18.23
2023-04-08T13:02:28.489Z,17.63
2023-04-08T13:04:54.880Z,17.63
2023-04-08T13:07:21.414Z,17.45
2023-04-08T13:09:47.708Z,17.23
2023-04-08T13:12:14.021Z,18.67
2023-04-08T13:14:40.327Z,19.90
2023-04-08T13:17:06.628Z,27.80
2023-04-08T13:19:32.934Z,17.73
2023-04-08T13:21:59.276Z,18.98
2023-04-08T13:24:25.624Z,18.10
2023-04-08T13:26:51.917Z,21.25
2023-04-08T13:29:18.213Z,17.05
2023-04-08T13:31:44.547Z,17.45
2023-04-08T13:34:10.874Z,18.95
2023-04-08T13:36:37.166Z,17.17
2023-04-08T13:39:03.566Z,17.73
2023-04-08T13:41:29.853Z,18.98
2023-04-08T13:43:56.185Z,19.05
2023-04-08T13:46:22.556Z,16.63
2023-04-08T13:48:48.963Z,16.70
2023-04-08T13:51:15.372Z,16.50
2023-04-08T13:53:41.682Z,16.20
2023-04-08T13:56:08.101Z,17.42
2023-04-08T13:58:34.409Z,17.10
2023-04-08T14:01:00.802Z,16.85
2023-04-08T14:03:27.162Z,17.50
2023-04-08T14:05:53.557Z,16.83
2023-04-08T14:08:19.857Z,16.55
2023-04-08T14:10:46.154Z,16.75
2023-04-08T14:13:12.428Z,16.83
2023-04-08T14:15:38.737Z,18.23
2023-04-08T14:18:05.083Z,16.58
2023-04-08T14:20:31.437Z,17.10
2023-04-08T14:22:57.752Z,19.17
2023-04-08T14:25:24.405Z,19.10
2023-04-08T14:27:58.133Z,19.48
2023-04-08T14:30:25.348Z,21.27
2023-04-08T14:32:51.736Z,20.40
2023-04-08T14:35:18.450Z,21.80
2023-04-08T14:37:44.755Z,21.63
2023-04-08T14:40:11.529Z,20.73
2023-04-08T14:42:37.925Z,20.65
2023-04-08T14:45:04.457Z,21.25
2023-04-08T14:47:30.793Z,20.17
2023-04-08T14:49:57.157Z,18.90
2023-04-08T14:52:23.457Z,20.25
2023-04-08T14:54:49.740Z,19.60
2023-04-08T14:57:16.073Z,19.58
2023-04-08T14:59:42.374Z,19.35
2023-04-08T15:02:08.827Z,17.88
2023-04-08T15:04:35.344Z,18.92
2023-04-08T15:07:01.743Z,21.02
2023-04-08T15:09:28.068Z,19.95
2023-04-08T15:11:54.381Z,20.05
2023-04-08T15:14:20.674Z,20.77
2023-04-08T15:16:47.072Z,20.65
2023-04-08T15:19:13.391Z,20.50
2023-04-08T15:21:39.708Z,21.15
2023-04-08T15:24:06.095Z,19.00
2023-04-08T15:26:32.407Z,21.20
2023-04-08T15:28:58.700Z,21.98
2023-04-08T15:31:25.095Z,21.50
2023-04-08T15:33:51.676Z,20.90
2023-04-08T15:36:18.191Z,20.73
2023-04-08T15:38:44.693Z,21.02
2023-04-08T15:41:18.470Z,19.50
2023-04-08T15:43:45.926Z,19.00
2023-04-08T15:46:17.609Z,20.48
2023-04-08T15:48:44.100Z,21.10
2023-04-08T15:51:10.684Z,26.35
2023-04-08T15:53:36.983Z,20.65
2023-04-08T15:56:03.300Z,19.02
2023-04-08T15:58:29.898Z,21.15
2023-04-08T16:00:56.198Z,19.85
2023-04-08T16:03:22.697Z,19.38
2023-04-08T16:05:49.152Z,19.80
2023-04-08T16:08:15.565Z,20.50
2023-04-08T16:10:42.340Z,19.63
2023-04-08T16:13:08.642Z,18.10
2023-04-08T16:15:35.356Z,18.80
2023-04-08T16:18:03.100Z,17.33
2023-04-08T16:20:29.422Z,19.33
2023-04-08T16:22:56.134Z,18.85
2023-04-08T16:25:22.625Z,19.73
2023-04-08T16:27:48.939Z,18.27
2023-04-08T16:30:15.463Z,20.80
2023-04-08T16:32:41.774Z,19.23
2023-04-08T16:35:08.573Z,19.70
2023-04-08T16:37:34.869Z,19.15
2023-04-08T16:40:01.254Z,19.05
2023-04-08T16:42:27.614Z,17.75
2023-04-08T16:44:57.277Z,17.80
2023-04-08T16:47:23.802Z,18.70
2023-04-08T16:49:51.295Z,17.63
2023-04-08T16:52:17.601Z,17.80
2023-04-08T16:54:44.306Z,19.63
2023-04-08T16:57:10.617Z,19.48
2023-04-08T16:59:36.978Z,21.55
2023-04-08T17:02:03.515Z,20.02
2023-04-08T17:04:29.981Z,21.00
2023-04-08T17:06:56.412Z,20.52
2023-04-08T17:09:23.016Z,21.35
2023-04-08T17:11:49.413Z,19.38
2023-04-08T17:14:15.738Z,19.27
2023-04-08T17:16:42.073Z,17.63
2023-04-08T17:19:08.452Z,18.55
2023-04-08T17:21:34.744Z,17.23
2023-04-08T17:24:01.075Z,19.63
2023-04-08T17:26:27.417Z,18.73
2023-04-08T17:28:53.729Z,18.98
2023-04-08T17:31:20.067Z,19.55
2023-04-08T17:33:46.390Z,20.90
2023-04-08T17:36:12.851Z,21.63
2023-04-08T17:38:39.174Z,22.02
2023-04-08T17:41:05.829Z,23.40
2023-04-08T17:43:32.137Z,23.05
2023-04-08T17:46:01.850Z,25.40
2023-04-08T17:48:28.402Z,25.88
2023-04-08T17:51:02.096Z,25.80
2023-04-08T17:53:28.509Z,28.50
2023-04-08T17:55:54.829Z,27.15
2023-04-08T17:58:22.276Z,26.45
2023-04-08T18:00:48.710Z,26.85
2023-04-08T18:03:15.204Z,26.48
2023-04-08T18:05:42.024Z,26.20
2023-04-08T18:08:08.714Z,26.20
2023-04-08T18:10:37.041Z,26.63
2023-04-08T18:15:35.306Z,25.65
2023-04-08T18:18:01.748Z,24.17
2023-04-08T18:20:28.084Z,24.42
2023-04-08T18:22:54.460Z,24.00
2023-04-08T18:25:20.777Z,24.20
2023-04-08T18:27:47.090Z,24.65
2023-04-08T18:30:13.519Z,26.10
2023-04-08T18:32:39.854Z,25.70
2023-04-08T18:35:06.603Z,30.98
2023-04-08T18:37:32.920Z,29.23
2023-04-08T18:39:59.230Z,27.88
2023-04-08T18:42:25.525Z,29.50
2023-04-08T18:44:51.829Z,27.40
2023-04-08T18:47:18.131Z,29.35
2023-04-08T18:49:44.428Z,27.55
2023-04-08T18:52:10.761Z,27.05
2023-04-08T18:54:37.071Z,28.50
2023-04-08T18:57:03.407Z,27.98
2023-04-08T18:59:29.744Z,28.17
2023-04-08T19:01:56.317Z,26.63
2023-04-08T19:04:22.948Z,25.70
2023-04-08T19:06:49.315Z,28.52
2023-04-08T19:09:15.615Z,28.55
2023-04-08T19:11:41.931Z,28.67
2023-04-08T19:14:08.254Z,28.08
2023-04-08T19:16:34.809Z,28.92
2023-04-08T19:19:01.166Z,27.88
2023-04-08T19:21:27.542Z,26.88
2023-04-08T19:23:54.084Z,26.38
2023-04-08T19:26:20.430Z,29.88
2023-04-08T19:28:46.759Z,28.02
2023-04-08T19:31:17.515Z,29.25
2023-04-08T19:33:44.340Z,28.15
2023-04-08T19:36:11.365Z,30.25
2023-04-08T19:38:38.087Z,28.80
2023-04-08T19:41:04.648Z,29.90
2023-04-08T19:43:30.959Z,28.35
2023-04-08T19:45:57.812Z,29.13
2023-04-08T19:48:24.739Z,28.42
2023-04-08T19:50:52.107Z,30.13
2023-04-08T19:53:18.635Z,28.85
2023-04-08T19:55:44.939Z,27.33
2023-04-08T19:58:11.416Z,27.30
2023-04-08T20:00:37.728Z,26.38
2023-04-08T20:03:05.256Z,27.02
2023-04-08T20:05:31.884Z,25.83
2023-04-08T20:07:58.204Z,24.27
2023-04-08T20:10:24.510Z,25.10
2023-04-08T20:12:52.932Z,25.13
2023-04-08T20:15:24.710Z,24.85
2023-04-08T20:17:51.835Z,24.85
2023-04-08T20:20:18.296Z,24.77
2023-04-08T20:22:44.630Z,24.45
2023-04-08T20:25:10.940Z,25.15
2023-04-08T20:27:37.249Z,23.67
2023-04-08T20:30:03.809Z,23.55
2023-04-08T20:32:30.114Z,25.05
2023-04-08T20:34:56.428Z,25.15
2023-04-08T20:37:22.743Z,25.05
2023-04-08T20:39:49.055Z,24.95
2023-04-08T20:42:15.355Z,24.13
2023-04-08T20:44:41.686Z,24.88
2023-04-08T20:47:08.059Z,26.10
2023-04-08T20:49:34.493Z,25.25
2023-04-08T20:52:00.796Z,26.98
2023-04-08T20:54:27.123Z,28.17
2023-04-08T20:56:53.420Z,25.67
2023-04-08T20:59:19.741Z,26.80
2023-04-08T21:01:46.173Z,24.33
2023-04-08T21:04:12.533Z,27.15
2023-04-08T21:06:38.844Z,27.00
2023-04-08T21:09:05.167Z,27.05
2023-04-08T21:11:31.480Z,26.15
2023-04-08T21:13:57.799Z,29.27
2023-04-08T21:16:24.137Z,29.80
2023-04-08T21:18:50.690Z,30.95
2023-04-08T21:21:17.212Z,28.80
2023-04-08T21:23:43.513Z,27.38
2023-04-08T21:26:11.120Z,29.73
2023-04-08T21:28:37.474Z,27.80
2023-04-08T21:31:13.520Z,29.33
2023-04-08T21:33:40.077Z,30.73
2023-04-08T21:36:06.655Z,31.42
2023-04-08T21:38:33.676Z,32.85
2023-04-08T21:41:00.238Z,31.52
2023-04-08T21:43:26.646Z,30.67
2023-04-08T21:45:53.832Z,29.35
2023-04-08T21:48:20.420Z,33.67
2023-04-08T21:50:47.173Z,30.42
2023-04-08T21:53:13.496Z,32.92
2023-04-08T21:55:39.806Z,32.50
2023-04-08T21:58:06.111Z,33.40
2023-04-08T22:00:32.414Z,32.17
2023-04-08T22:02:58.984Z,31.88
2023-04-08T22:05:25.480Z,30.60
2023-04-08T22:07:51.789Z,31.27
2023-04-08T22:10:18.166Z,33.30
2023-04-08T22:12:44.468Z,33.03
2023-04-08T22:15:11.099Z,32.28
2023-04-08T22:17:37.410Z,33.95
2023-04-08T22:20:03.993Z,32.80
2023-04-08T22:22:30.320Z,33.05
2023-04-08T22:24:56.630Z,33.72
2023-04-08T22:27:22.917Z,32.40
2023-04-08T22:29:49.251Z,32.38
2023-04-08T22:32:15.604Z,29.25
2023-04-08T22:34:41.931Z,30.17
2023-04-08T22:37:08.266Z,29.90
2023-04-08T22:39:34.584Z,29.95
2023-04-08T22:42:00.946Z,30.92
2023-04-08T22:44:27.254Z,32.05
2023-04-08T22:46:53.541Z,30.55
2023-04-08T22:49:19.847Z,33.47
2023-04-08T22:51:46.162Z,31.60
2023-04-08T22:54:12.466Z,33.53
2023-04-08T22:56:38.797Z,33.08
2023-04-08T22:59:05.166Z,33.00
2023-04-08T23:01:31.627Z,33.67
2023-04-08T23:03:58.024Z,33.85
2023-04-08T23:06:24.519Z,34.80
2023-04-08T23:08:51.060Z,34.08
2023-04-08T23:11:17.639Z,35.55
2023-04-08T23:13:43.939Z,35.80
2023-04-08T23:16:10.546Z,34.33
2023-04-08T23:18:36.943Z,35.53
2023-04-08T23:21:03.292Z,35.28
2023-04-08T23:23:29.601Z,34.83
2023-04-08T23:25:56.048Z,36.67
2023-04-08T23:28:22.784Z,35.47
2023-04-08T23:30:49.120Z,35.30
2023-04-08T23:33:15.483Z,34.70
2023-04-08T23:35:41.959Z,34.17
2023-04-08T23:38:08.294Z,34.05
2023-04-08T23:40:34.609Z,34.42
2023-04-08T23:43:00.903Z,33.33
2023-04-08T23:45:27.191Z,34.08
2023-04-08T23:47:53.562Z,34.88
2023-04-08T23:50:19.862Z,35.15
2023-04-08T23:52:46.163Z,34.22
2023-04-08T23:55:12.457Z,35.55
2023-04-08T23:57:41.842Z,34.50
